Time;durP1;ratioP1;P1;durP2;ratioP2;P2;SDS_P1;SDS_P2;PMS_P1;PMS_P2;Temp;Humidity;BMP_temperature;BMP_pressure;BME280_temperature;BME280_humidity;BME280_pressure;Samples;Min_cycle;Max_cycle;Signal;HPM_P1;HPM_P2
2023/10/10 00:02:18;;;;;;;;;;;;;;;13.71;100.00;97081.22;5064327;28;19944;-70
2023/10/10 00:04:47;;;;;;;;;;;;;;;13.69;100.00;97078.84;5064622;28;19936;-69
2023/10/10 00:07:14;;;;;;;;;;;;;;;13.68;100.00;97084.31;5064024;28;20136;-70
2023/10/10 00:09:43;;;;;;;;;;;;;;;13.66;100.00;97081.91;5064266;28;20240;-69
2023/10/10 00:12:17;;;;;;;;;;;;;;;13.67;100.00;97090.63;5064808;28;19936;-69
2023/10/10 00:14:42;;;;;;;;;;;;;;;13.65;100.00;97090.03;5064967;28;19955;-69
2023/10/10 00:17:09;;;;;;;;;;;;;;;13.64;100.00;97101.59;5063957;28;20210;-69
2023/10/10 00:19:44;;;;;;;;;;;;;;;13.61;100.00;97094.97;5064564;28;20231;-69
2023/10/10 00:22:10;;;;;;;;;;;;;;;13.58;100.00;97093.53;5064211;28;20266;-70
2023/10/10 00:24:36;;;;;;;;;;;;;;;13.56;100.00;97089.53;5063855;28;19936;-70
2023/10/10 00:27:14;;;;;;;;;;;;;;;13.53;100.00;97088.16;5066782;28;20245;-69
2023/10/10 00:29:43;;;;;;;;;;;;;;;13.52;100.00;97077.81;5068849;28;19936;-70
2023/10/10 00:32:17;;;;;;;;;;;;;;;13.51;100.00;97070.94;5068019;28;19937;-70
2023/10/10 00:34:47;;;;;;;;;;;;;;;13.50;100.00;97069.31;5067858;28;19960;-70
2023/10/10 00:37:14;;;;;;;;;;;;;;;13.49;100.00;97063.25;5067912;28;19941;-70
2023/10/10 00:39:40;;;;;;;;;;;;;;;13.45;100.00;97066.56;5068235;28;19955;-69
2023/10/10 00:42:08;;;;;;;;;;;;;;;13.40;100.00;97070.66;5067774;28;19943;-70
2023/10/10 00:44:37;;;;;;;;;;;;;;;13.37;100.00;97073.72;5068250;28;19932;-70
2023/10/10 00:47:04;;;;;;;;;;;;;;;13.34;100.00;97071.53;5067541;28;19964;-70
2023/10/10 00:49:36;;;;;;;;;;;;;;;13.33;100.00;97063.84;5067676;28;19939;-70
2023/10/10 00:52:06;;;;;;;;;;;;;;;13.33;100.00;97063.84;5068241;28;19975;-70
2023/10/10 00:54:40;;;;;;;;;;;;;;;13.31;100.00;97048.28;5067489;28;19931;-70
2023/10/10 00:57:14;;;;;;;;;;;;;;;13.30;100.00;97054.56;5068089;28;19937;-70
2023/10/10 00:59:43;;;;;;;;;;;;;;;13.30;100.00;97049.28;5067648;28;19959;-70
2023/10/10 01:02:10;;;;;;;;;;;;;;;13.31;100.00;97050.09;5068192;28;19930;-70
2023/10/10 01:04:39;;;;;;;;;;;;;;;13.30;100.00;97051.13;5067880;28;19932;-70
2023/10/10 01:07:08;;;;;;;;;;;;;;;13.27;100.00;97051.53;5067318;28;19942;-70
2023/10/10 01:09:39;;;;;;;;;;;;;;;13.26;100.00;97047.28;5067221;28;20241;-70
2023/10/10 01:12:05;;;;;;;;;;;;;;;13.24;100.00;97050.13;5068082;28;20229;-70
2023/10/10 01:14:31;;;;;;;;;;;;;;;13.22;100.00;97049.56;5067172;28;19930;-69
2023/10/10 01:17:00;;;;;;;;;;;;;;;13.23;100.00;97055.63;5067147;28;19937;-69
2023/10/10 01:19:29;;;;;;;;;;;;;;;13.22;100.00;97054.81;5067841;28;19952;-70
2023/10/10 01:21:58;;;;;;;;;;;;;;;13.22;100.00;97054.03;5067314;28;20122;-70
2023/10/10 01:24:25;;;;;;;;;;;;;;;13.20;100.00;97049.75;5067240;28;20100;-70
2023/10/10 01:26:51;;;;;;;;;;;;;;;13.19;100.00;97047.38;5067782;28;19935;-70
2023/10/10 01:29:27;;;;;;;;;;;;;;;13.15;100.00;97044.38;5066900;28;19929;-69
2023/10/10 01:31:53;;;;;;;;;;;;;;;13.10;100.00;97044.22;5067086;28;20137;-70
2023/10/10 01:34:43;;;;;;;;;;;;;;;13.05;100.00;97035.38;5066782;28;20138;-70
2023/10/10 01:37:20;;;;;;;;;;;;;;;13.00;100.00;97043.91;5066884;28;19950;-70
2023/10/10 01:39:53;;;;;;;;;;;;;;;12.95;100.00;97036.66;5067222;28;19946;-70
2023/10/10 01:42:30;;;;;;;;;;;;;;;12.91;100.00;97030.22;5067206;28;20211;-70
2023/10/10 01:45:03;;;;;;;;;;;;;;;12.88;100.00;97024.59;5066986;28;19938;-69
2023/10/10 01:47:34;;;;;;;;;;;;;;;12.87;100.00;97030.88;5066886;28;19965;-70
2023/10/10 01:50:13;;;;;;;;;;;;;;;12.84;100.00;97029.50;5067646;28;19941;-70
2023/10/10 01:52:45;;;;;;;;;;;;;;;12.81;100.00;97027.31;5066542;28;19935;-70
2023/10/10 01:55:12;;;;;;;;;;;;;;;12.78;100.00;97032.97;5066577;28;20224;-70
2023/10/10 01:57:38;;;;;;;;;;;;;;;12.77;100.00;97034.03;5066343;28;19938;-70
2023/10/10 02:00:19;;;;;;;;;;;;;;;12.75;100.00;97034.22;5066810;28;19954;-69
2023/10/10 02:02:49;;;;;;;;;;;;;;;12.72;100.00;97032.03;5066586;28;20129;-69
2023/10/10 02:05:25;;;;;;;;;;;;;;;12.72;100.00;97031.22;5066263;28;20241;-69
2023/10/10 02:07:53;;;;;;;;;;;;;;;12.71;100.00;97038.31;5066828;28;20111;-69
2023/10/10 02:10:19;;;;;;;;;;;;;;;12.71;100.00;97030.41;5066172;28;19943;-69
2023/10/10 02:12:45;;;;;;;;;;;;;;;12.71;100.00;97022.53;5066106;28;19937;-69
2023/10/10 02:15:18;;;;;;;;;;;;;;;12.71;100.00;97022.53;5066102;28;20006;-69
2023/10/10 02:17:56;;;;;;;;;;;;;;;12.72;100.00;97018.06;5066591;28;20049;-69
2023/10/10 02:22:53;;;;;;;;;;;;;;;12.70;100.00;97023.53;5065933;28;19938;-69
2023/10/10 02:27:55;;;;;;;;;;;;;;;12.69;100.00;97031.66;5066687;28;19939;-70
2023/10/10 02:30:34;;;;;;;;;;;;;;;12.68;100.00;97019.50;5065808;28;19941;-69
2023/10/10 02:35:55;;;;;;;;;;;;;;;12.61;100.00;97019.59;5065904;28;19961;-69
2023/10/10 02:38:39;;;;;;;;;;;;;;;12.58;100.00;97031.34;5065624;28;19941;-69
2023/10/10 02:46:34;;;;;;;;;;;;;;;12.46;100.00;97027.00;5066018;28;19931;-70
2023/10/10 02:49:02;;;;;;;;;;;;;;;12.42;100.00;97020.56;5066210;28;20108;-69
2023/10/10 02:51:31;;;;;;;;;;;;;;;12.38;100.00;97026.25;5065574;28;19949;-70
2023/10/10 02:53:57;;;;;;;;;;;;;;;12.37;100.00;97021.22;5065369;28;19959;-69
2023/10/10 02:56:24;;;;;;;;;;;;;;;12.35;100.00;97021.41;5065286;28;20217;-69
2023/10/10 02:58:54;;;;;;;;;;;;;;;12.35;100.00;97016.16;5065185;28;19937;-69
2023/10/10 03:04:07;;;;;;;;;;;;;;;12.36;100.00;97022.22;5065393;28;19937;-69
2023/10/10 03:06:34;;;;;;;;;;;;;;;12.37;100.00;97010.69;5065061;28;19938;-70
2023/10/10 03:09:38;;;;;;;;;;;;;;;12.37;100.00;97014.13;5065044;28;20127;-70
2023/10/10 03:12:05;;;;;;;;;;;;;;;12.38;100.00;97013.09;5063753;28;19946;-70
2023/10/10 03:14:33;;;;;;;;;;;;;;;12.37;100.00;97005.44;5065454;28;19940;-70
2023/10/10 03:17:03;;;;;;;;;;;;;;;12.36;100.00;97015.13;5064892;28;19929;-70
2023/10/10 03:19:37;;;;;;;;;;;;;;;12.36;100.00;97020.38;5064700;28;19963;-70
2023/10/10 03:31:06;;;;;;;;;;;;;;;12.30;100.00;97017.81;5065220;28;19938;-70
2023/10/10 03:33:16;;;;;;;;;;;;;;;12.28;100.00;97014.59;5059349;28;20219;-70
2023/10/10 05:25:23;;;;;;;;;;;;;;;11.49;100.00;97009.59;5066650;28;19947;-69
2023/10/10 05:27:51;;;;;;;;;;;;;;;11.48;100.00;97007.19;5067786;28;19937;-70
2023/10/10 05:30:23;;;;;;;;;;;;;;;11.44;100.00;97005.97;5066838;28;19942;-70
2023/10/10 05:33:02;;;;;;;;;;;;;;;11.42;100.00;97008.81;5067235;28;19935;-69
2023/10/10 05:35:29;;;;;;;;;;;;;;;11.37;100.00;97008.66;5066528;28;19957;-70
2023/10/10 05:38:00;;;;;;;;;;;;;;;11.36;100.00;97004.44;5066473;28;19967;-69
2023/10/10 05:40:26;;;;;;;;;;;;;;;11.33;100.00;97008.25;5067105;28;19959;-69
2023/10/10 05:42:52;;;;;;;;;;;;;;;11.31;100.00;97002.41;5066332;28;19942;-69
2023/10/10 05:45:18;;;;;;;;;;;;;;;11.32;100.00;97005.84;5066264;28;19943;-69
2023/10/10 05:47:44;;;;;;;;;;;;;;;11.34;100.00;97003.81;5066619;28;20280;-69
2023/10/10 05:50:10;;;;;;;;;;;;;;;11.35;100.00;97008.84;5066148;28;19946;-69
2023/10/10 05:52:38;;;;;;;;;;;;;;;11.36;100.00;97007.84;5066522;28;19933;-70
2023/10/10 05:55:05;;;;;;;;;;;;;;;11.37;100.00;97009.44;5066423;28;19934;-69
2023/10/10 05:57:33;;;;;;;;;;;;;;;11.41;100.00;97003.78;5066863;28;19931;-69
2023/10/10 05:59:59;;;;;;;;;;;;;;;11.43;100.00;97010.44;5066251;28;19955;-69
2023/10/10 06:02:27;;;;;;;;;;;;;;;11.47;100.00;97013.47;5066704;28;20233;-70
2023/10/10 06:04:53;;;;;;;;;;;;;;;11.50;100.00;97021.72;5066998;28;19944;-70
2023/10/10 06:07:20;;;;;;;;;;;;;;;11.51;100.00;97018.09;5066695;28;19935;-70
2023/10/10 06:09:48;;;;;;;;;;;;;;;11.55;100.00;97028.97;5066125;28;19937;-69
2023/10/10 06:12:15;;;;;;;;;;;;;;;11.61;100.00;97029.94;5066103;28;19938;-70
2023/10/10 06:14:42;;;;;;;;;;;;;;;11.68;100.00;97028.13;5066825;28;19944;-70
2023/10/10 06:17:08;;;;;;;;;;;;;;;11.77;100.00;97037.34;5066070;28;19938;-69
2023/10/10 06:19:34;;;;;;;;;;;;;;;11.88;100.00;97028.81;5066446;28;19935;-70
2023/10/10 06:22:02;;;;;;;;;;;;;;;12.00;100.00;97030.78;5066304;28;20240;-70
2023/10/10 06:24:28;;;;;;;;;;;;;;;12.10;100.00;97024.03;5065966;28;19937;-70
2023/10/10 06:27:00;;;;;;;;;;;;;;;12.20;100.00;97026.19;5065859;28;19941;-70
2023/10/10 06:29:29;;;;;;;;;;;;;;;12.27;100.00;97021.69;5066337;28;19961;-70
2023/10/10 06:31:56;;;;;;;;;;;;;;;12.39;100.00;97022.59;5066491;28;19941;-70
2023/10/10 06:34:23;;;;;;;;;;;;;;;12.50;100.00;97017.66;5066067;28;19952;-70
2023/10/10 06:36:50;;;;;;;;;;;;;;;12.63;100.00;97014.09;5065601;28;19931;-69
2023/10/10 06:41:46;;;;;;;;;;;;;;;12.94;100.00;97018.47;5065447;28;19952;-70
2023/10/10 06:44:17;;;;;;;;;;;;;;;13.02;100.00;97022.63;5065521;28;19939;-69
2023/10/10 06:46:47;;;;;;;;;;;;;;;13.10;100.00;97017.88;5065743;28;19928;-70
2023/10/10 06:49:13;;;;;;;;;;;;;;;13.20;100.00;97022.63;5065742;28;19936;-70
2023/10/10 06:51:39;;;;;;;;;;;;;;;13.28;100.00;97026.81;5065861;28;20121;-70
2023/10/10 06:54:08;;;;;;;;;;;;;;;13.33;100.00;97019.06;5065269;28;19933;-70
2023/10/10 06:56:53;;;;;;;;;;;;;;;13.39;100.00;97023.44;5065181;28;19935;-70
2023/10/10 06:59:25;;;;;;;;;;;;;;;13.42;100.00;97015.13;5065452;28;19938;-70
2023/10/10 07:01:50;;;;;;;;;;;;;;;13.45;100.00;97019.13;5065056;28;19952;-70
2023/10/10 07:04:19;;;;;;;;;;;;;;;13.49;100.00;97018.47;5065114;28;20234;-70
2023/10/10 07:06:45;;;;;;;;;;;;;;;13.55;100.00;97016.78;5064930;28;19999;-70
2023/10/10 07:09:29;;;;;;;;;;;;;;;13.65;100.00;97008.31;5065013;28;20250;-70
2023/10/10 07:11:56;;;;;;;;;;;;;;;13.76;100.00;97011.00;5065523;28;20098;-70
2023/10/10 07:14:25;;;;;;;;;;;;;;;13.80;100.00;97000.84;5064920;28;19934;-71
2023/10/10 07:16:56;;;;;;;;;;;;;;;13.82;100.00;97006.69;5065620;28;19953;-70
2023/10/10 07:19:29;;;;;;;;;;;;;;;13.82;100.00;97004.06;5065108;28;19936;-70
2023/10/10 07:21:56;;;;;;;;;;;;;;;13.85;100.00;96997.53;5065264;28;19964;-70
2023/10/10 07:24:28;;;;;;;;;;;;;;;13.91;100.00;97000.06;5064758;28;19937;-70
2023/10/10 07:27:10;;;;;;;;;;;;;;;14.02;100.00;97007.19;5065008;28;19941;-70
2023/10/10 07:32:17;;;;;;;;;;;;;;;14.18;100.00;97004.94;5065419;28;20201;-70
2023/10/10 07:34:49;;;;;;;;;;;;;;;14.18;100.00;97013.66;5065033;28;19947;-71
2023/10/10 07:37:15;;;;;;;;;;;;;;;14.20;100.00;97008.94;5064395;28;19940;-69
2023/10/10 07:42:27;;;;;;;;;;;;;;;14.34;100.00;97019.28;5064974;28;19931;-70
2023/10/10 07:44:56;;;;;;;;;;;;;;;14.40;100.00;97024.47;5064396;28;19936;-70
2023/10/10 07:47:25;;;;;;;;;;;;;;;14.47;100.00;97016.44;5064119;28;19968;-70
2023/10/10 07:49:52;;;;;;;;;;;;;;;14.51;100.00;97009.69;5064257;28;19939;-70
2023/10/10 07:52:20;;;;;;;;;;;;;;;14.57;100.00;97008.81;5064299;28;19936;-70
2023/10/10 07:54:46;;;;;;;;;;;;;;;14.68;100.00;97001.91;5064203;28;19931;-70
2023/10/10 07:57:17;;;;;;;;;;;;;;;14.80;100.00;97009.81;5064225;28;20129;-70
2023/10/10 07:59:46;;;;;;;;;;;;;;;14.91;100.00;96997.63;5064467;28;20218;-71
2023/10/10 08:02:24;;;;;;;;;;;;;;;15.02;100.00;97004.75;5064938;28;19941;-70
2023/10/10 08:04:51;;;;;;;;;;;;;;;15.10;100.00;96991.19;5064134;28;20130;-70
2023/10/10 08:07:20;;;;;;;;;;;;;;;15.18;100.00;96997.94;5064030;28;19931;-70
2023/10/10 08:09:47;;;;;;;;;;;;;;;15.21;100.00;97002.75;5063985;28;19936;-70
2023/10/10 08:12:13;;;;;;;;;;;;;;;15.30;100.00;96985.50;5063973;28;20243;-70
2023/10/10 08:14:39;;;;;;;;;;;;;;;15.45;100.00;97002.69;5064435;28;19942;-70
2023/10/10 08:17:51;;;;;;;;;;;;;;;15.57;100.00;96998.97;5064704;28;19941;-70
2023/10/10 08:20:30;;;;;;;;;;;;;;;15.73;100.00;96992.16;5061886;28;19942;-70
2023/10/10 08:22:44;;;;;;;;;;;;;;;15.82;100.00;96977.50;5063759;28;19933;-71
2023/10/10 08:25:09;;;;;;;;;;;;;;;15.86;100.00;96972.53;5064281;28;19939;-70
2023/10/10 08:27:38;;;;;;;;;;;;;;;15.95;100.00;96979.03;5063840;28;19936;-70
2023/10/10 08:30:04;;;;;;;;;;;;;;;16.03;100.00;96989.22;5063760;28;19932;-70
2023/10/10 08:32:30;;;;;;;;;;;;;;;16.09;100.00;96984.84;5063729;28;19931;-71
2023/10/10 08:34:59;;;;;;;;;;;;;;;16.13;100.00;96993.91;5063676;28;19947;-70
2023/10/10 08:37:27;;;;;;;;;;;;;;;16.21;100.00;96995.31;5063715;28;19935;-71
2023/10/10 08:39:55;;;;;;;;;;;;;;;16.28;100.00;96995.19;5063665;28;19935;-70
2023/10/10 08:42:22;;;;;;;;;;;;;;;16.33;100.00;96996.06;5064218;28;19929;-70
2023/10/10 08:44:55;;;;;;;;;;;;;;;16.39;100.00;96992.44;5062469;28;19938;-70
2023/10/10 08:47:31;;;;;;;;;;;;;;;16.48;100.00;96986.75;5065023;28;19962;-71
2023/10/10 08:49:57;;;;;;;;;;;;;;;16.55;100.00;96984.75;5067793;28;19937;-70
2023/10/10 08:52:24;;;;;;;;;;;;;;;16.67;100.00;97003.19;5067646;28;20240;-70
2023/10/10 08:54:51;;;;;;;;;;;;;;;16.76;100.00;96983.19;5067553;28;19955;-70
2023/10/10 08:57:27;;;;;;;;;;;;;;;16.85;100.00;96973.81;5067101;28;20454;-70
2023/10/10 08:59:52;;;;;;;;;;;;;;;16.97;100.00;96986.94;5068031;28;20207;-70
2023/10/10 09:02:20;;;;;;;;;;;;;;;17.06;100.00;96974.06;5066900;28;19954;-70
2023/10/10 09:04:46;;;;;;;;;;;;;;;17.12;98.20;96968.59;5067424;28;19935;-70
2023/10/10 09:07:20;;;;;;;;;;;;;;;17.15;99.22;96970.72;5067374;28;19941;-70
2023/10/10 09:09:54;;;;;;;;;;;;;;;17.23;99.44;96970.28;5067352;28;19934;-70
2023/10/10 09:12:20;;;;;;;;;;;;;;;17.31;100.00;96970.91;5067572;28;19945;-70
2023/10/10 09:14:50;;;;;;;;;;;;;;;17.38;98.01;96958.28;5067137;28;20216;-70
2023/10/10 09:17:35;;;;;;;;;;;;;;;17.44;97.98;96952.75;5067431;28;20233;-70
2023/10/10 09:20:17;;;;;;;;;;;;;;;17.50;96.66;96952.84;5066754;28;19941;-70
2023/10/10 09:22:44;;;;;;;;;;;;;;;17.60;98.09;96960.91;5067608;28;19933;-70
2023/10/10 09:25:18;;;;;;;;;;;;;;;17.69;97.06;96958.59;5067820;28;19934;-70
2023/10/10 09:27:57;;;;;;;;;;;;;;;17.77;95.58;96950.19;5067026;28;20224;-69
2023/10/10 09:30:30;;;;;;;;;;;;;;;17.80;94.91;96937.19;5066969;28;19930;-74
2023/10/10 09:33:00;;;;;;;;;;;;;;;17.84;95.03;96940.97;5067492;28;19936;-72
2023/10/10 09:35:28;;;;;;;;;;;;;;;17.91;96.68;96945.28;5066754;28;19956;-71
2023/10/10 09:37:57;;;;;;;;;;;;;;;17.97;95.90;96950.38;5066764;28;20132;-71
2023/10/10 09:40:24;;;;;;;;;;;;;;;18.05;96.82;96952.56;5066638;28;19935;-73
2023/10/10 09:43:03;;;;;;;;;;;;;;;18.11;94.90;96942.00;5066683;28;19960;-72
2023/10/10 09:48:28;;;;;;;;;;;;;;;18.27;95.83;96951.69;5066613;28;19959;-71
2023/10/10 09:51:30;;;;;;;;;;;;;;;18.32;95.92;96957.03;5066562;28;20137;-71
2023/10/10 09:54:15;;;;;;;;;;;;;;;18.40;95.87;96958.41;5067069;28;19941;-72
2023/10/10 09:56:48;;;;;;;;;;;;;;;18.46;95.55;96960.06;5066436;28;19938;-71
2023/10/10 09:59:14;;;;;;;;;;;;;;;18.53;96.29;96970.44;5065780;28;19927;-71
2023/10/10 10:01:45;;;;;;;;;;;;;;;18.58;96.72;96962.50;5066281;28;19965;-72
2023/10/10 10:04:18;;;;;;;;;;;;;;;18.63;95.26;96960.69;5067067;28;19935;-72
2023/10/10 10:07:13;;;;;;;;;;;;;;;18.66;95.10;96962.03;5066754;28;19924;-73
2023/10/10 10:09:51;;;;;;;;;;;;;;;18.71;95.27;96964.72;5057318;28;19939;-71
2023/10/10 10:12:43;;;;;;;;;;;;;;;18.77;93.67;96950.41;5066655;28;20092;-72
2023/10/10 10:15:18;;;;;;;;;;;;;;;18.86;94.42;96956.84;5066651;28;19928;-72
2023/10/10 10:17:47;;;;;;;;;;;;;;;18.94;93.24;96957.41;5066279;28;19937;-73
2023/10/10 10:20:27;;;;;;;;;;;;;;;19.01;95.12;96963.31;5066503;28;20117;-72
2023/10/10 10:22:59;;;;;;;;;;;;;;;19.09;95.02;96965.47;5066772;28;19937;-72
2023/10/10 10:25:28;;;;;;;;;;;;;;;19.21;95.39;96967.91;5066450;28;19960;-72
2023/10/10 10:28:00;;;;;;;;;;;;;;;19.29;93.57;96958.63;5065844;28;20130;-71
2023/10/10 10:32:56;;;;;;;;;;;;;;;19.43;94.45;96957.88;5065742;28;19936;-71
2023/10/10 10:35:23;;;;;;;;;;;;;;;19.47;93.06;96950.97;5065657;28;19957;-73
2023/10/10 10:37:58;;;;;;;;;;;;;;;19.53;91.11;96938.50;5065891;28;19958;-72
2023/10/10 10:40:41;;;;;;;;;;;;;;;19.57;91.36;96934.25;5065598;28;19935;-75
2023/10/10 10:43:14;;;;;;;;;;;;;;;19.63;91.67;96935.84;5066437;28;20104;-72
2023/10/10 10:46:11;;;;;;;;;;;;;;;19.71;91.89;96955.03;5066041;28;19934;-72
2023/10/10 10:48:39;;;;;;;;;;;;;;;19.80;92.00;96948.13;5065195;28;19962;-72
2023/10/10 10:51:22;;;;;;;;;;;;;;;19.90;92.99;96950.00;5065401;28;19940;-72
2023/10/10 10:53:58;;;;;;;;;;;;;;;20.01;91.44;96941.75;5065651;28;19954;-72
2023/10/10 10:56:37;;;;;;;;;;;;;;;20.14;89.47;96924.47;5065283;28;19934;-72
2023/10/10 10:59:13;;;;;;;;;;;;;;;20.26;89.59;96913.50;5065814;28;19956;-73
2023/10/10 11:01:55;;;;;;;;;;;;;;;20.41;90.87;96926.81;5065206;28;19948;-72
2023/10/10 11:07:04;;;;;;;;;;;;;;;20.66;88.48;96906.53;5065142;28;19926;-72
2023/10/10 11:09:32;;;;;;;;;;;;;;;20.73;87.92;96903.59;5065074;28;19936;-72
2023/10/10 11:12:05;;;;;;;;;;;;;;;20.81;88.14;96908.34;5064777;28;19930;-72
2023/10/10 11:14:32;;;;;;;;;;;;;;;20.88;86.75;96895.53;5065526;28;19947;-72
2023/10/10 11:16:58;;;;;;;;;;;;;;;20.98;86.68;96897.38;5064957;28;19945;-72
2023/10/10 11:19:38;;;;;;;;;;;;;;;21.05;87.01;96897.84;5064900;28;19941;-73
2023/10/10 11:22:05;;;;;;;;;;;;;;;21.09;83.77;96869.56;5065614;28;19961;-74
2023/10/10 11:24:32;;;;;;;;;;;;;;;21.15;86.97;96899.69;5064788;28;19941;-73
2023/10/10 11:27:13;;;;;;;;;;;;;;;21.23;85.21;96891.09;5065246;28;19940;-73
2023/10/10 11:29:47;;;;;;;;;;;;;;;21.28;82.94;96875.06;5065236;28;19940;-72
2023/10/10 11:32:24;;;;;;;;;;;;;;;21.31;84.73;96887.84;5065531;28;20083;-73
2023/10/10 11:34:56;;;;;;;;;;;;;;;21.31;84.30;96906.50;5064079;28;19950;-73
2023/10/10 11:37:26;;;;;;;;;;;;;;;21.33;84.28;96908.91;5065053;28;19938;-73
2023/10/10 11:40:30;;;;;;;;;;;;;;;21.35;83.46;96906.78;5064424;28;19946;-73
2023/10/10 11:42:57;;;;;;;;;;;;;;;21.38;83.88;96909.69;5064752;28;19943;-72
2023/10/10 11:45:26;;;;;;;;;;;;;;;21.43;83.43;96906.22;5065214;28;19939;-72
2023/10/10 11:47:53;;;;;;;;;;;;;;;21.49;81.04;96895.22;5064144;28;19964;-72
2023/10/10 11:50:27;;;;;;;;;;;;;;;21.57;82.72;96901.88;5064861;28;19945;-73
2023/10/10 11:52:57;;;;;;;;;;;;;;;21.67;82.94;96893.78;5064776;28;19936;-72
2023/10/10 11:55:23;;;;;;;;;;;;;;;21.74;85.28;96906.03;5065037;28;19933;-73
2023/10/10 11:57:50;;;;;;;;;;;;;;;21.80;82.69;96888.91;5065012;28;19931;-73
2023/10/10 12:00:22;;;;;;;;;;;;;;;21.85;80.84;96894.19;5065009;28;19934;-73
2023/10/10 12:02:48;;;;;;;;;;;;;;;21.88;82.30;96889.09;5064130;28;19950;-73
2023/10/10 12:05:36;;;;;;;;;;;;;;;21.92;82.67;96889.31;5064677;28;19935;-73
2023/10/10 12:08:02;;;;;;;;;;;;;;;21.96;82.56;96889.56;5064303;28;19934;-73
2023/10/10 12:10:42;;;;;;;;;;;;;;;21.97;80.00;96883.94;5064053;28;20132;-73
2023/10/10 12:13:19;;;;;;;;;;;;;;;21.99;81.50;96889.81;5064292;28;19934;-73
2023/10/10 12:15:46;;;;;;;;;;;;;;;22.03;80.47;96884.69;5064483;28;19938;-73
2023/10/10 12:18:13;;;;;;;;;;;;;;;22.05;80.30;96878.00;5063966;28;20125;-72
2023/10/10 12:20:44;;;;;;;;;;;;;;;22.08;80.16;96888.09;5063883;28;20080;-73
2023/10/10 12:23:10;;;;;;;;;;;;;;;22.14;79.79;96880.84;5063776;28;19927;-72
2023/10/10 12:25:42;;;;;;;;;;;;;;;22.18;80.09;96878.41;5063804;28;19931;-74
2023/10/10 12:28:09;;;;;;;;;;;;;;;22.24;80.03;96880.00;5064212;28;19935;-73
2023/10/10 12:30:40;;;;;;;;;;;;;;;22.33;80.35;96875.63;5063643;28;19937;-73
2023/10/10 12:33:07;;;;;;;;;;;;;;;22.43;80.25;96872.06;5064587;28;19928;-74
2023/10/10 12:35:33;;;;;;;;;;;;;;;22.50;79.51;96862.59;5063829;28;20217;-73
2023/10/10 12:38:01;;;;;;;;;;;;;;;22.57;76.22;96856.91;5064319;28;19937;-76
2023/10/10 12:40:28;;;;;;;;;;;;;;;22.64;78.25;96856.59;5063706;28;19960;-77
2023/10/10 12:42:54;;;;;;;;;;;;;;;22.71;75.75;96849.00;5063604;28;19960;-77
2023/10/10 12:45:19;;;;;;;;;;;;;;;22.72;75.83;96857.81;5063768;28;19942;-77
2023/10/10 12:47:45;;;;;;;;;;;;;;;22.70;75.04;96860.78;5063815;28;19958;-77
2023/10/10 12:50:13;;;;;;;;;;;;;;;22.70;73.10;96847.44;5063621;28;19987;-74
2023/10/10 12:52:45;;;;;;;;;;;;;;;22.74;72.22;96847.63;5063597;28;19965;-73
2023/10/10 12:55:11;;;;;;;;;;;;;;;22.83;74.11;96851.28;5063585;28;19945;-74
2023/10/10 12:57:38;;;;;;;;;;;;;;;22.89;71.00;96840.22;5063510;28;19999;-74
2023/10/10 13:00:23;;;;;;;;;;;;;;;22.98;72.68;96850.28;5063525;28;19955;-75
2023/10/10 13:02:49;;;;;;;;;;;;;;;23.06;70.79;96838.97;5063628;28;19950;-74
2023/10/10 13:05:16;;;;;;;;;;;;;;;23.12;72.15;96842.34;5063454;28;19928;-73
2023/10/10 13:07:43;;;;;;;;;;;;;;;23.17;70.35;96840.41;5063998;28;20081;-73
2023/10/10 13:10:10;;;;;;;;;;;;;;;23.18;71.48;96844.69;5063473;28;19937;-73
2023/10/10 13:12:36;;;;;;;;;;;;;;;23.18;70.14;96839.34;5063415;28;19937;-74
2023/10/10 13:17:53;;;;;;;;;;;;;;;23.23;66.24;96839.25;5044373;28;20114;-73
2023/10/10 13:20:21;;;;;;;;;;;;;;;23.27;70.95;96850.19;5063418;28;19951;-73
2023/10/10 13:22:52;;;;;;;;;;;;;;;23.30;66.62;96847.69;5063715;28;20256;-74
2023/10/10 13:25:19;;;;;;;;;;;;;;;23.29;66.50;96840.00;5064143;28;19929;-73
2023/10/10 13:27:46;;;;;;;;;;;;;;;23.28;67.33;96844.53;5064015;28;19934;-74
2023/10/10 13:30:12;;;;;;;;;;;;;;;23.29;67.68;96845.34;5063730;28;20119;-73
2023/10/10 13:32:39;;;;;;;;;;;;;;;23.27;66.66;96842.16;5063247;28;19946;-74
2023/10/10 13:35:08;;;;;;;;;;;;;;;23.28;65.76;96851.75;5065945;28;20115;-73
2023/10/10 13:37:35;;;;;;;;;;;;;;;23.28;65.16;96836.50;5067064;28;19926;-75
2023/10/10 13:40:01;;;;;;;;;;;;;;;23.28;62.06;96833.03;5066784;28;19997;-74
2023/10/10 13:42:27;;;;;;;;;;;;;;;23.27;62.19;96840.28;5066699;28;19953;-74
2023/10/10 13:45:09;;;;;;;;;;;;;;;23.26;63.93;96851.25;5066605;28;19937;-74
2023/10/10 13:47:36;;;;;;;;;;;;;;;23.26;63.14;96848.56;5066539;28;19956;-75
2023/10/10 13:53:00;;;;;;;;;;;;;;;23.23;61.55;96846.50;5033335;28;19944;-73
2023/10/10 13:55:29;;;;;;;;;;;;;;;23.19;56.27;96840.13;5066550;28;19964;-74
2023/10/10 13:57:55;;;;;;;;;;;;;;;23.18;61.49;96851.91;5066387;28;19931;-73
2023/10/10 14:00:33;;;;;;;;;;;;;;;23.17;58.92;96851.13;5066402;28;19930;-74
2023/10/10 14:03:05;;;;;;;;;;;;;;;23.15;59.63;96850.59;5066771;28;20267;-74
2023/10/10 14:05:35;;;;;;;;;;;;;;;23.15;57.45;96841.78;5066844;28;19947;-74
2023/10/10 14:08:17;;;;;;;;;;;;;;;23.15;58.12;96834.56;5066209;28;19940;-74
2023/10/10 14:10:43;;;;;;;;;;;;;;;23.18;58.12;96844.69;5066707;28;19965;-73
2023/10/10 14:13:23;;;;;;;;;;;;;;;23.27;59.95;96845.63;5066158;28;19946;-75
2023/10/10 14:15:56;;;;;;;;;;;;;;;23.39;54.72;96833.66;5066643;28;19934;-74
2023/10/10 14:18:23;;;;;;;;;;;;;;;23.49;58.10;96839.66;5066618;28;19931;-74
2023/10/10 14:20:50;;;;;;;;;;;;;;;23.58;54.57;96836.31;5065990;28;19942;-74
2023/10/10 14:23:39;;;;;;;;;;;;;;;23.65;56.29;96837.53;5065866;28;19953;-73
2023/10/10 14:26:16;;;;;;;;;;;;;;;23.74;58.15;96839.56;5066654;28;19949;-73
2023/10/10 14:28:52;;;;;;;;;;;;;;;23.82;58.80;96841.59;5066656;28;20108;-74
2023/10/10 14:31:19;;;;;;;;;;;;;;;23.86;58.29;96831.88;5066086;28;19942;-73
2023/10/10 14:33:44;;;;;;;;;;;;;;;23.87;58.32;96830.78;5066217;28;20236;-75
2023/10/10 14:36:13;;;;;;;;;;;;;;;23.86;55.06;96824.63;5065649;28;19963;-74
2023/10/10 14:38:45;;;;;;;;;;;;;;;23.79;53.87;96828.78;5065637;28;19927;-75
2023/10/10 14:41:19;;;;;;;;;;;;;;;23.74;55.58;96842.22;5065531;28;19935;-73
2023/10/10 14:43:49;;;;;;;;;;;;;;;23.64;54.25;96838.63;5066388;28;20120;-73
2023/10/10 14:46:21;;;;;;;;;;;;;;;23.58;55.53;96839.00;5066031;28;19948;-73
2023/10/10 14:48:51;;;;;;;;;;;;;;;23.53;54.41;96842.56;5065273;28;19969;-75
2023/10/10 14:51:17;;;;;;;;;;;;;;;23.48;56.20;96842.66;5066159;28;19940;-74
2023/10/10 14:53:51;;;;;;;;;;;;;;;23.45;56.20;96835.19;5065604;28;20242;-75
2023/10/10 14:56:22;;;;;;;;;;;;;;;23.44;56.94;96838.97;5065692;28;19931;-73
2023/10/10 14:58:49;;;;;;;;;;;;;;;23.43;56.62;96834.69;5065813;28;19929;-74
2023/10/10 15:01:20;;;;;;;;;;;;;;;23.41;58.28;96844.88;5065184;28;19936;-74
2023/10/10 15:03:47;;;;;;;;;;;;;;;23.35;55.61;96829.97;5065178;28;19933;-77
2023/10/10 15:06:15;;;;;;;;;;;;;;;23.31;57.17;96835.13;5065175;28;19942;-77
2023/10/10 15:08:43;;;;;;;;;;;;;;;23.28;58.13;96835.69;5065525;28;19928;-77
2023/10/10 15:11:11;;;;;;;;;;;;;;;23.23;58.65;96835.78;5065044;28;19936;-77
2023/10/10 15:13:41;;;;;;;;;;;;;;;23.18;58.72;96843.88;5064990;28;19932;-77
2023/10/10 15:16:10;;;;;;;;;;;;;;;23.13;59.03;96846.63;5064990;28;19957;-74
2023/10/10 15:18:40;;;;;;;;;;;;;;;23.06;58.96;96845.09;5064915;28;19935;-78
2023/10/10 15:21:07;;;;;;;;;;;;;;;23.00;60.70;96854.25;5065616;28;19942;-77
2023/10/10 15:23:32;;;;;;;;;;;;;;;22.95;58.60;96848.16;5065263;28;19973;-77
2023/10/10 15:26:06;;;;;;;;;;;;;;;22.88;59.74;96849.31;5064791;28;20212;-76
2023/10/10 15:28:32;;;;;;;;;;;;;;;22.80;60.14;96849.94;5065005;28;19928;-77
2023/10/10 15:30:58;;;;;;;;;;;;;;;22.73;60.09;96848.72;5064711;28;19936;-79
2023/10/10 15:33:25;;;;;;;;;;;;;;;22.66;61.46;96855.22;5064685;28;20123;-79
2023/10/10 15:35:52;;;;;;;;;;;;;;;22.60;60.99;96860.91;5064535;28;19951;-80